Time;durP1;ratioP1;P1;durP2;ratioP2;P2;SDS_P1;SDS_P2;PMS_P1;PMS_P2;Temp;Humidity;BMP_temperature;BMP_pressure;BME280_temperature;BME280_humidity;BME280_pressure;Samples;Min_cycle;Max_cycle;Signal;HPM_P1;HPM_P2
2021/10/06 04:00:32;;;;;;;8.40;7.70;;;11.90;99.90;;;;;;5901948;23;20576;-72
2021/10/06 04:02:59;;;;;;;7.97;7.28;;;11.90;99.90;;;;;;4954295;28;20209;-71
2021/10/06 04:05:25;;;;;;;7.90;7.07;;;11.80;99.90;;;;;;4953885;28;20260;-71
2021/10/06 04:07:52;;;;;;;9.15;8.20;;;11.80;99.90;;;;;;4954848;28;20308;-70
2021/10/06 04:10:19;;;;;;;8.80;7.97;;;11.70;99.90;;;;;;4954471;28;20316;-71
2021/10/06 04:12:46;;;;;;;9.48;7.70;;;11.70;99.90;;;;;;4954690;28;20213;-72
2021/10/06 04:15:13;;;;;;;10.40;8.52;;;11.70;99.90;;;;;;4954527;28;20212;-68
2021/10/06 04:17:41;;;;;;;8.70;7.47;;;11.60;99.90;;;;;;4956397;28;20213;-68
2021/10/06 04:20:08;;;;;;;12.75;8.15;;;11.60;99.90;;;;;;4953695;28;20514;-70
2021/10/06 04:22:35;;;;;;;8.88;7.75;;;11.60;99.90;;;;;;4954304;28;20281;-70
2021/10/06 04:25:01;;;;;;;10.68;8.00;;;11.50;99.90;;;;;;4949310;28;20226;-69
2021/10/06 04:27:28;;;;;;;8.82;8.02;;;11.50;99.90;;;;;;4935533;29;20217;-70
2021/10/06 04:29:55;;;;;;;9.07;7.82;;;11.50;99.90;;;;;;4934622;29;20218;-70
2021/10/06 04:32:21;;;;;;;11.57;7.78;;;11.40;99.90;;;;;;4935148;29;20230;-70
2021/10/06 04:34:50;;;;;;;8.88;8.05;;;11.40;99.90;;;;;;4934323;29;20217;-70
2021/10/06 04:37:16;;;;;;;14.82;8.23;;;11.40;99.90;;;;;;4935269;29;20209;-69
2021/10/06 04:39:43;;;;;;;11.45;7.82;;;11.30;99.90;;;;;;4934580;29;20214;-73
2021/10/06 04:42:10;;;;;;;7.75;6.95;;;11.30;99.90;;;;;;4934609;29;20650;-72
2021/10/06 04:44:36;;;;;;;9.50;7.57;;;11.30;99.90;;;;;;4934764;29;20646;-72
2021/10/06 04:47:03;;;;;;;11.68;8.35;;;11.20;99.90;;;;;;4935244;29;20587;-72
2021/10/06 04:49:30;;;;;;;11.25;8.38;;;11.20;99.90;;;;;;4934759;29;20222;-71
2021/10/06 04:51:58;;;;;;;8.27;7.45;;;11.20;99.90;;;;;;4934857;29;20705;-72
2021/10/06 04:54:25;;;;;;;12.30;8.85;;;11.20;99.90;;;;;;4934543;29;20218;-71
2021/10/06 04:56:51;;;;;;;10.77;8.27;;;11.10;99.90;;;;;;4935063;29;20277;-71
2021/10/06 04:59:18;;;;;;;11.07;9.25;;;11.10;99.90;;;;;;4934744;29;20265;-71
2021/10/06 05:01:45;;;;;;;12.30;8.25;;;11.10;99.90;;;;;;4935141;29;20328;-71
2021/10/06 05:04:11;;;;;;;9.70;8.63;;;11.00;99.90;;;;;;4933745;29;20289;-72
2021/10/06 05:06:38;;;;;;;10.60;7.50;;;11.00;99.90;;;;;;4934996;29;20647;-71
2021/10/06 05:09:06;;;;;;;10.10;8.55;;;11.00;99.90;;;;;;4942315;29;20245;-73
2021/10/06 05:11:33;;;;;;;9.20;8.30;;;11.00;99.90;;;;;;4948643;29;20238;-73
2021/10/06 05:13:59;;;;;;;8.73;7.75;;;11.00;99.90;;;;;;4946407;29;20662;-72
2021/10/06 05:16:26;;;;;;;8.93;7.90;;;11.00;99.90;;;;;;4947158;29;20228;-73
2021/10/06 05:18:53;;;;;;;10.75;8.25;;;11.00;99.90;;;;;;4949349;29;20674;-73
2021/10/06 05:21:20;;;;;;;8.25;7.45;;;10.90;99.90;;;;;;4946809;29;20226;-73
2021/10/06 05:23:46;;;;;;;12.65;8.05;;;10.90;99.90;;;;;;4944708;29;20693;-73
2021/10/06 05:26:14;;;;;;;9.45;7.82;;;10.90;99.90;;;;;;4939168;29;20615;-73
2021/10/06 05:28:41;;;;;;;8.68;7.82;;;10.90;99.90;;;;;;4939844;29;20305;-73
2021/10/06 05:31:08;;;;;;;8.50;7.70;;;10.90;99.90;;;;;;4939456;29;20726;-73
2021/10/06 05:33:35;;;;;;;10.35;7.95;;;10.80;99.90;;;;;;4939859;29;20210;-73
2021/10/06 05:36:03;;;;;;;9.82;7.70;;;10.80;99.90;;;;;;4936716;29;20248;-73
2021/10/06 05:38:29;;;;;;;8.77;7.97;;;10.80;99.90;;;;;;4936099;29;20214;-69
2021/10/06 05:40:56;;;;;;;8.25;7.55;;;10.80;99.90;;;;;;4935835;29;20658;-70
2021/10/06 05:43:24;;;;;;;11.80;8.48;;;10.80;99.90;;;;;;4938003;29;20218;-69
2021/10/06 05:45:50;;;;;;;10.15;8.73;;;10.80;99.90;;;;;;4937990;29;20210;-69
2021/10/06 05:48:17;;;;;;;8.63;7.75;;;10.80;99.90;;;;;;4943165;29;20256;-73
2021/10/06 05:50:44;;;;;;;9.70;8.80;;;10.80;99.90;;;;;;4951947;29;20234;-72
2021/10/06 05:53:11;;;;;;;9.95;7.95;;;10.80;99.90;;;;;;4949294;29;20595;-73
2021/10/06 05:55:37;;;;;;;8.30;7.60;;;10.80;99.90;;;;;;4950402;29;20237;-73
2021/10/06 05:58:04;;;;;;;9.88;7.95;;;10.80;99.90;;;;;;4952744;29;20210;-73
2021/10/06 06:00:32;;;;;;;11.07;8.20;;;10.80;99.90;;;;;;4953681;29;20234;-73
2021/10/06 06:02:59;;;;;;;10.88;8.57;;;10.80;99.90;;;;;;4949761;29;20210;-72
2021/10/06 06:05:25;;;;;;;10.90;7.82;;;10.80;99.90;;;;;;4947891;29;20300;-72
2021/10/06 06:07:52;;;;;;;9.20;8.30;;;10.80;99.90;;;;;;4951460;29;20253;-73
2021/10/06 06:10:19;;;;;;;12.23;8.73;;;10.80;99.90;;;;;;4950677;29;20241;-72
2021/10/06 06:12:46;;;;;;;8.80;7.95;;;10.80;99.90;;;;;;4952194;29;20218;-73
2021/10/06 06:15:14;;;;;;;8.07;7.38;;;10.80;99.90;;;;;;4953286;29;20269;-73
2021/10/06 06:17:42;;;;;;;8.50;7.65;;;10.90;99.90;;;;;;4952479;29;20220;-72
2021/10/06 06:20:11;;;;;;;13.20;7.45;;;10.90;99.90;;;;;;4952411;29;20257;-72
2021/10/06 06:22:39;;;;;;;7.03;6.43;;;10.90;99.90;;;;;;4953842;29;20217;-72
2021/10/06 06:25:08;;;;;;;10.63;7.07;;;10.90;99.90;;;;;;4948083;29;20300;-70
2021/10/06 06:27:34;;;;;;;9.52;7.30;;;10.90;99.90;;;;;;4937333;29;20578;-71
2021/10/06 06:30:01;;;;;;;10.52;7.30;;;11.00;99.90;;;;;;4937310;29;20218;-71
2021/10/06 06:32:28;;;;;;;8.82;8.02;;;11.10;99.90;;;;;;4936734;29;20233;-70
2021/10/06 06:34:56;;;;;;;6.80;6.15;;;11.10;99.90;;;;;;4936534;29;20356;-71
2021/10/06 06:37:22;;;;;;;8.93;8.05;;;11.10;99.90;;;;;;4937020;29;20232;-72
2021/10/06 06:39:49;;;;;;;7.20;6.47;;;11.20;99.90;;;;;;4936933;29;20508;-71
2021/10/06 06:42:16;;;;;;;9.65;6.75;;;11.20;99.90;;;;;;4936958;29;20233;-69
2021/10/06 06:44:43;;;;;;;10.70;8.38;;;11.30;99.90;;;;;;4936600;29;20236;-69
2021/10/06 06:47:09;;;;;;;9.60;6.82;;;11.30;99.90;;;;;;4937114;29;20276;-69
2021/10/06 06:49:36;;;;;;;9.77;6.95;;;11.40;99.90;;;;;;4936014;29;20262;-69
2021/10/06 06:52:04;;;;;;;7.13;5.75;;;11.50;99.90;;;;;;4935824;29;20234;-69
2021/10/06 06:54:31;;;;;;;5.60;5.25;;;11.60;99.90;;;;;;4936614;29;20214;-69
2021/10/06 06:56:58;;;;;;;6.60;6.20;;;11.60;99.90;;;;;;4938223;29;20309;-71
2021/10/06 06:59:24;;;;;;;5.93;5.43;;;11.60;99.90;;;;;;4936958;29;20264;-70
2021/10/06 07:01:53;;;;;;;6.32;5.72;;;11.70;99.90;;;;;;4936754;29;20241;-70
2021/10/06 07:04:20;;;;;;;6.97;6.38;;;11.70;99.90;;;;;;4935201;29;20266;-70
2021/10/06 07:06:46;;;;;;;6.45;5.45;;;11.70;99.90;;;;;;4936868;29;20209;-70
2021/10/06 07:09:18;;;;;;;5.85;5.50;;;11.70;99.90;;;;;;4936535;29;20222;-70
2021/10/06 07:11:45;;;;;;;7.90;5.15;;;11.70;99.90;;;;;;4936361;29;20645;-70
2021/10/06 07:14:13;;;;;;;5.75;5.18;;;11.80;99.90;;;;;;4935679;29;20283;-70
2021/10/06 07:16:40;;;;;;;5.90;5.40;;;11.80;99.90;;;;;;4936347;29;20316;-70
2021/10/06 07:19:06;;;;;;;5.18;4.78;;;11.80;99.90;;;;;;4935428;29;20210;-70
2021/10/06 07:21:33;;;;;;;5.63;5.05;;;11.80;99.90;;;;;;4936207;29;20233;-70
2021/10/06 07:24:00;;;;;;;5.72;5.18;;;11.90;99.90;;;;;;4935682;29;20579;-71
2021/10/06 07:26:28;;;;;;;6.03;4.07;;;11.90;99.90;;;;;;4936002;29;20218;-72
2021/10/06 07:28:54;;;;;;;4.65;4.15;;;12.00;99.90;;;;;;4936214;29;20217;-71
2021/10/06 07:31:21;;;;;;;5.03;4.72;;;12.10;99.90;;;;;;4935758;29;20261;-71
2021/10/06 07:33:50;;;;;;;7.35;4.10;;;12.10;99.90;;;;;;4935935;29;20221;-71
2021/10/06 07:36:17;;;;;;;5.45;5.05;;;12.10;99.90;;;;;;4935340;29;20277;-70
2021/10/06 07:38:43;;;;;;;5.13;4.70;;;12.20;99.90;;;;;;4936009;29;20209;-70
2021/10/06 07:41:10;;;;;;;5.13;4.78;;;12.20;99.90;;;;;;4935534;29;20234;-71
2021/10/06 07:43:38;;;;;;;5.63;5.28;;;12.30;99.90;;;;;;4935894;29;20289;-69
2021/10/06 07:46:05;;;;;;;4.43;4.13;;;12.30;99.90;;;;;;4935774;29;20242;-69
2021/10/06 07:48:31;;;;;;;4.60;4.20;;;12.40;99.90;;;;;;4935794;29;20213;-69
2021/10/06 07:50:58;;;;;;;3.90;3.60;;;12.40;99.90;;;;;;4934663;29;20285;-69
2021/10/06 07:53:24;;;;;;;7.85;4.07;;;12.40;99.90;;;;;;4935631;29;20292;-69
2021/10/06 07:55:51;;;;;;;4.43;4.03;;;12.50;99.90;;;;;;4935333;29;20206;-70
2021/10/06 07:58:18;;;;;;;4.33;4.10;;;12.50;99.90;;;;;;4935571;29;20217;-71
2021/10/06 08:00:46;;;;;;;4.23;3.77;;;12.50;99.90;;;;;;4935324;29;20584;-71
2021/10/06 08:03:13;;;;;;;3.47;3.35;;;12.60;99.90;;;;;;4935325;29;20473;-71
2021/10/06 08:05:39;;;;;;;4.07;3.72;;;12.70;99.90;;;;;;4934452;29;20293;-72
2021/10/06 08:08:06;;;;;;;4.17;3.83;;;12.70;99.90;;;;;;4935239;29;20285;-69
2021/10/06 08:10:33;;;;;;;6.38;4.18;;;12.80;99.90;;;;;;4935473;29;20482;-69
2021/10/06 08:13:00;;;;;;;3.75;3.60;;;12.80;99.90;;;;;;4934760;29;20218;-70
2021/10/06 08:15:26;;;;;;;5.53;4.70;;;12.80;99.90;;;;;;4935101;29;20206;-69
2021/10/06 08:17:54;;;;;;;3.25;3.05;;;12.90;99.90;;;;;;4935494;29;20513;-70
2021/10/06 08:20:21;;;;;;;3.47;3.17;;;12.90;99.90;;;;;;4934295;29;20280;-70
2021/10/06 08:22:48;;;;;;;5.70;3.33;;;13.00;99.90;;;;;;4934738;29;20505;-70
2021/10/06 08:25:14;;;;;;;4.73;4.07;;;13.10;99.90;;;;;;4934890;29;20904;-69
2021/10/06 08:27:41;;;;;;;2.57;2.40;;;13.20;99.90;;;;;;4934986;29;20509;-70
2021/10/06 08:30:09;;;;;;;3.30;3.00;;;13.20;99.90;;;;;;4934932;29;20469;-69
2021/10/06 08:32:36;;;;;;;2.77;2.70;;;13.20;99.90;;;;;;4934915;29;20253;-69
2021/10/06 08:35:04;;;;;;;5.60;3.03;;;13.30;99.90;;;;;;4934027;29;20537;-69
2021/10/06 08:37:31;;;;;;;3.37;3.17;;;13.30;99.90;;;;;;4933114;29;20493;-69
2021/10/06 08:39:58;;;;;;;4.10;3.17;;;13.40;99.90;;;;;;4935063;29;20466;-70
2021/10/06 08:42:26;;;;;;;3.03;2.90;;;13.50;99.90;;;;;;4934859;29;20537;-69
2021/10/06 08:44:52;;;;;;;3.10;2.80;;;13.50;99.90;;;;;;4934490;29;20849;-69
2021/10/06 08:47:20;;;;;;;3.47;3.20;;;13.60;99.90;;;;;;4934620;29;20986;-69
2021/10/06 08:49:47;;;;;;;2.87;2.67;;;13.70;99.90;;;;;;4933517;29;20834;-69
2021/10/06 08:52:15;;;;;;;3.27;2.60;;;13.70;99.90;;;;;;4934691;29;20482;-69
2021/10/06 08:54:42;;;;;;;3.13;3.03;;;13.70;99.90;;;;;;4935226;29;20525;-69
2021/10/06 08:57:15;;;;;;;3.07;2.73;;;13.80;99.90;;;;;;4934927;29;20473;-69
2021/10/06 08:59:42;;;;;;;2.80;2.60;;;13.90;99.90;;;;;;4934719;29;20500;-70
2021/10/06 09:02:12;;;;;;;2.67;2.57;;;14.00;99.90;;;;;;4934506;29;20505;-70
2021/10/06 09:04:38;;;;;;;2.63;2.53;;;14.10;99.90;;;;;;4933804;29;20502;-70
2021/10/06 09:07:05;;;;;;;3.50;3.00;;;14.20;99.90;;;;;;4934578;29;20540;-69
2021/10/06 09:09:35;;;;;;;5.80;2.83;;;14.30;99.90;;;;;;4934417;29;20472;-69
2021/10/06 09:12:08;;;;;;;2.30;2.20;;;14.40;99.90;;;;;;4934560;29;20489;-70
2021/10/06 09:14:40;;;;;;;2.53;2.43;;;14.40;99.90;;;;;;4934617;29;20458;-70
2021/10/06 09:17:08;;;;;;;2.43;2.23;;;14.40;99.90;;;;;;4938069;29;20469;-70
2021/10/06 09:19:37;;;;;;;5.47;2.13;;;14.50;99.90;;;;;;4937555;29;20954;-70
2021/10/06 09:22:05;;;;;;;2.30;2.30;;;14.60;99.90;;;;;;4938081;29;20609;-70
2021/10/06 09:27:29;;;;;;;2.20;2.10;;;14.60;99.90;;;;;;5089424;27;20533;-70
2021/10/06 09:29:58;;;;;;;3.10;2.40;;;14.80;99.90;;;;;;5089601;28;20523;-70
2021/10/06 09:32:28;;;;;;;2.60;2.47;;;14.80;99.90;;;;;;5089454;28;20874;-70
2021/10/06 09:35:06;;;;;;;2.87;2.47;;;14.80;99.90;;;;;;5088729;28;20462;-71
2021/10/06 09:37:33;;;;;;;2.23;2.20;;;14.60;99.90;;;;;;5089635;28;20454;-70
2021/10/06 09:40:00;;;;;;;2.77;2.77;;;14.50;99.90;;;;;;5089239;28;20512;-69
2021/10/06 09:42:28;;;;;;;2.37;2.27;;;14.50;99.90;;;;;;5089787;28;20486;-72
2021/10/06 09:44:56;;;;;;;2.80;2.70;;;14.50;99.90;;;;;;5090568;28;20462;-70
2021/10/06 09:47:23;;;;;;;2.20;2.00;;;14.60;99.90;;;;;;5090899;28;20482;-69
2021/10/06 09:49:55;;;;;;;2.43;2.30;;;14.50;99.90;;;;;;5088390;28;20887;-70
2021/10/06 09:52:24;;;;;;;3.37;3.17;;;14.40;99.90;;;;;;5090856;28;20478;-70
2021/10/06 09:54:51;;;;;;;2.30;2.20;;;14.30;99.90;;;;;;5090574;28;20479;-70
2021/10/06 09:57:27;;;;;;;2.37;2.20;;;14.40;99.90;;;;;;5091330;28;20946;-70
2021/10/06 09:59:56;;;;;;;2.97;2.30;;;14.50;99.90;;;;;;5088903;28;20464;-69
2021/10/06 10:02:25;;;;;;;2.43;2.37;;;14.60;99.90;;;;;;5088844;28;20482;-70
2021/10/06 10:04:53;;;;;;;6.50;2.30;;;14.70;99.90;;;;;;5071253;28;20955;-70
2021/10/06 10:07:20;;;;;;;2.30;2.20;;;14.80;99.90;;;;;;5068750;28;20893;-69
2021/10/06 10:09:48;;;;;;;3.00;2.80;;;14.90;99.90;;;;;;5068700;28;20467;-69
2021/10/06 10:12:17;;;;;;;1.63;1.57;;;15.00;99.90;;;;;;5068443;28;20475;-69
2021/10/06 10:14:44;;;;;;;2.10;2.00;;;15.00;99.90;;;;;;5068679;28;20467;-69
2021/10/06 10:17:12;;;;;;;1.80;1.70;;;15.10;99.90;;;;;;5068533;28;20475;-69
2021/10/06 10:19:38;;;;;;;3.57;1.70;;;15.20;99.90;;;;;;5067383;28;20566;-70
2021/10/06 10:22:07;;;;;;;1.83;1.73;;;15.30;99.90;;;;;;5068375;28;20479;-71
2021/10/06 10:24:44;;;;;;;1.77;1.67;;;15.30;99.90;;;;;;5068554;28;20466;-70
2021/10/06 10:27:15;;;;;;;1.40;1.40;;;15.30;99.90;;;;;;5068104;28;20586;-70
2021/10/06 10:29:47;;;;;;;1.63;1.53;;;15.30;99.90;;;;;;5067925;28;20948;-70
2021/10/06 10:32:17;;;;;;;1.83;1.50;;;15.20;99.90;;;;;;5068236;28;20908;-71
2021/10/06 10:35:11;;;;;;;3.47;2.07;;;15.20;99.90;;;;;;5067348;28;20463;-71
2021/10/06 10:38:04;;;;;;;5.47;4.87;;;15.30;99.90;;;;;;5024760;28;20480;-72
2021/10/06 10:40:40;;;;;;;4.00;2.10;;;15.30;99.90;;;;;;5054683;28;20541;-71
2021/10/06 10:43:09;;;;;;;2.03;1.93;;;15.30;99.90;;;;;;5054767;28;20956;-72
2021/10/06 10:45:38;;;;;;;1.73;1.73;;;15.30;99.90;;;;;;5054635;28;20827;-72
2021/10/06 10:48:07;;;;;;;1.80;1.70;;;15.40;99.90;;;;;;5054792;28;20612;-72
2021/10/06 10:50:56;;;;;;;1.73;1.63;;;15.40;99.90;;;;;;5053504;28;20546;-71
2021/10/06 10:53:45;;;;;;;1.47;1.47;;;15.50;99.90;;;;;;5053946;28;20873;-71
2021/10/06 10:56:12;;;;;;;1.40;1.40;;;15.70;99.90;;;;;;5054359;28;20529;-71
2021/10/06 10:58:40;;;;;;;1.27;1.20;;;15.80;99.90;;;;;;5054099;28;20899;-71
2021/10/06 11:01:09;;;;;;;1.90;1.90;;;15.90;99.90;;;;;;5053913;28;20488;-71
2021/10/06 11:04:09;;;;;;;1.43;1.40;;;15.80;99.90;;;;;;5054353;28;20456;-70
2021/10/06 11:06:37;;;;;;;1.60;1.50;;;15.70;99.90;;;;;;5054310;28;20837;-72
2021/10/06 11:09:47;;;;;;;1.23;1.23;;;15.70;99.90;;;;;;5054325;28;20460;-71
2021/10/06 11:12:39;;;;;;;1.47;1.33;;;15.70;99.90;;;;;;5038304;28;20507;-71
2021/10/06 11:15:22;;;;;;;1.30;1.30;;;15.60;99.90;;;;;;5054072;28;20605;-71
2021/10/06 11:18:12;;;;;;;2.00;1.70;;;15.50;99.90;;;;;;5053932;28;20452;-71
2021/10/06 11:20:52;;;;;;;1.67;1.67;;;15.50;99.90;;;;;;5052893;28;21006;-71
2021/10/06 11:23:58;;;;;;;1.40;1.40;;;15.40;99.90;;;;;;5053470;28;20460;-72
2021/10/06 11:26:35;;;;;;;1.33;1.23;;;15.30;99.90;;;;;;5053471;28;20519;-71
2021/10/06 11:29:04;;;;;;;1.30;1.30;;;15.20;99.90;;;;;;5054082;28;20487;-71
2021/10/06 11:31:33;;;;;;;1.80;1.57;;;15.20;99.90;;;;;;5053694;28;20633;-72
2021/10/06 11:34:01;;;;;;;1.10;1.10;;;15.10;99.90;;;;;;5052967;28;20476;-71
2021/10/06 11:36:32;;;;;;;3.13;1.30;;;15.10;99.90;;;;;;5053001;28;20931;-71
2021/10/06 11:39:04;;;;;;;1.60;1.60;;;15.10;99.90;;;;;;5053743;28;20882;-71
2021/10/06 11:41:31;;;;;;;1.33;0.90;;;15.10;99.90;;;;;;5053752;28;20859;-71
2021/10/06 11:43:59;;;;;;;1.20;1.20;;;15.10;99.90;;;;;;5053125;28;20520;-71
2021/10/06 11:46:27;;;;;;;1.60;1.33;;;15.20;99.90;;;;;;5053263;28;20894;-71
2021/10/06 11:48:56;;;;;;;1.50;1.40;;;15.30;99.90;;;;;;5050195;28;20494;-71
2021/10/06 11:51:39;;;;;;;1.60;1.50;;;15.40;99.90;;;;;;5052811;28;20491;-71
2021/10/06 11:54:06;;;;;;;1.70;1.70;;;15.40;99.90;;;;;;5053135;28;21018;-71
2021/10/06 11:56:33;;;;;;;1.10;1.10;;;15.40;99.90;;;;;;5053342;28;20494;-70
2021/10/06 11:59:11;;;;;;;1.30;1.30;;;15.40;99.90;;;;;;5052378;28;20484;-71
2021/10/06 12:01:39;;;;;;;1.93;1.60;;;15.40;99.90;;;;;;5053036;28;20591;-71
2021/10/06 12:04:13;;;;;;;1.57;1.50;;;15.50;99.90;;;;;;5051931;28;20518;-72
2021/10/06 12:06:43;;;;;;;1.30;1.30;;;15.60;99.90;;;;;;5053517;28;20510;-71
2021/10/06 12:09:10;;;;;;;3.20;1.20;;;15.60;99.90;;;;;;5052966;28;20468;-72
2021/10/06 12:11:39;;;;;;;1.47;1.40;;;15.80;99.90;;;;;;5053023;28;20983;-71
2021/10/06 12:14:26;;;;;;;1.53;1.43;;;15.80;99.90;;;;;;5052706;28;20472;-71
2021/10/06 12:17:05;;;;;;;1.00;1.00;;;15.70;99.90;;;;;;5052991;28;20920;-71
2021/10/06 12:19:32;;;;;;;2.40;1.30;;;15.70;99.90;;;;;;5051978;28;20476;-71
2021/10/06 12:22:01;;;;;;;2.50;1.60;;;15.80;99.90;;;;;;5052614;28;20510;-71
2021/10/06 12:24:30;;;;;;;1.10;1.10;;;15.90;99.90;;;;;;5052351;28;20513;-71
2021/10/06 12:26:58;;;;;;;4.93;1.17;;;15.90;99.90;;;;;;5052981;28;20495;-71
2021/10/06 12:29:27;;;;;;;1.10;1.10;;;15.90;99.90;;;;;;5052371;28;21002;-72
2021/10/06 12:31:56;;;;;;;1.40;1.40;;;16.00;99.90;;;;;;5052767;28;20586;-71
2021/10/06 12:34:24;;;;;;;1.67;1.50;;;15.90;99.90;;;;;;5051372;28;20464;-71
2021/10/06 12:36:53;;;;;;;1.70;1.17;;;15.90;99.90;;;;;;5052354;28;20882;-71
2021/10/06 12:39:24;;;;;;;2.93;1.90;;;15.80;99.90;;;;;;5051433;28;20518;-71
2021/10/06 12:41:55;;;;;;;2.33;1.40;;;15.80;99.90;;;;;;5052625;28;20591;-71
2021/10/06 12:44:28;;;;;;;1.03;1.03;;;15.80;99.90;;;;;;5052341;28;20461;-71
2021/10/06 12:46:57;;;;;;;1.30;1.20;;;15.90;99.90;;;;;;5052357;28;20480;-71
2021/10/06 12:49:25;;;;;;;1.17;1.07;;;16.10;99.90;;;;;;5051285;28;20480;-71
2021/10/06 12:51:57;;;;;;;2.60;1.30;;;16.20;99.90;;;;;;5051322;28;20549;-71
2021/10/06 12:54:27;;;;;;;1.03;1.03;;;16.20;99.90;;;;;;5052027;28;20831;-71
2021/10/06 12:56:56;;;;;;;1.30;1.20;;;16.30;99.90;;;;;;5052747;28;20460;-71
2021/10/06 12:59:32;;;;;;;1.30;1.20;;;16.40;99.90;;;;;;5051998;28;20542;-71
2021/10/06 13:02:00;;;;;;;1.00;1.00;;;16.40;99.90;;;;;;5051668;28;20550;-72
2021/10/06 13:04:27;;;;;;;1.03;0.97;;;16.40;99.90;;;;;;5051348;28;20468;-72
2021/10/06 13:06:54;;;;;;;0.97;0.97;;;16.30;99.90;;;;;;5052337;28;20533;-71
2021/10/06 13:09:22;;;;;;;1.00;1.00;;;16.30;99.90;;;;;;5051980;28;20471;-71
2021/10/06 13:11:52;;;;;;;1.07;0.93;;;16.20;99.90;;;;;;5051818;28;20500;-71
2021/10/06 13:14:19;;;;;;;1.10;1.10;;;16.30;99.90;;;;;;5051700;28;20464;-71
2021/10/06 13:16:47;;;;;;;1.17;1.17;;;16.30;99.90;;;;;;5051959;28;20468;-71
2021/10/06 13:19:14;;;;;;;1.00;1.00;;;16.40;99.90;;;;;;5051042;28;20525;-71
2021/10/06 13:21:43;;;;;;;0.80;0.80;;;16.30;99.90;;;;;;5052043;28;20488;-71
2021/10/06 13:24:10;;;;;;;1.83;0.77;;;16.30;99.90;;;;;;5051283;28;20898;-70
2021/10/06 13:26:37;;;;;;;1.23;1.13;;;16.20;99.90;;;;;;5051578;28;21041;-71
2021/10/06 13:29:05;;;;;;;1.17;1.10;;;16.20;99.90;;;;;;5051866;28;20578;-70
2021/10/06 13:31:33;;;;;;;0.77;0.77;;;16.20;99.90;;;;;;5051910;28;20480;-71
2021/10/06 13:34:00;;;;;;;1.20;1.20;;;16.20;99.90;;;;;;5050780;28;21026;-70
2021/10/06 13:36:26;;;;;;;0.77;0.77;;;16.30;99.90;;;;;;5051501;28;20463;-70
2021/10/06 13:38:53;;;;;;;1.10;1.00;;;16.20;99.90;;;;;;5051831;28;20517;-70
2021/10/06 13:41:20;;;;;;;1.57;1.40;;;16.20;99.90;;;;;;5051628;28;20533;-70
2021/10/06 13:43:46;;;;;;;1.60;1.10;;;16.20;99.90;;;;;;5051264;28;20529;-70
2021/10/06 13:46:16;;;;;;;1.80;1.10;;;16.20;99.90;;;;;;5051517;28;20494;-70
2021/10/06 13:48:42;;;;;;;1.27;1.27;;;16.10;99.90;;;;;;5051615;28;20606;-70
2021/10/06 13:51:11;;;;;;;0.87;0.87;;;16.10;99.90;;;;;;5050554;28;20488;-70
2021/10/06 13:53:38;;;;;;;0.90;0.90;;;16.00;99.90;;;;;;5051471;28;20468;-70
2021/10/06 13:56:05;;;;;;;1.87;1.70;;;15.90;99.90;;;;;;5051155;28;20579;-70
2021/10/06 13:58:32;;;;;;;1.03;0.93;;;15.90;99.90;;;;;;5051863;28;20452;-69
2021/10/06 14:00:59;;;;;;;1.70;1.20;;;15.90;99.90;;;;;;5051281;28;20518;-70
2021/10/06 14:03:27;;;;;;;1.30;1.20;;;15.80;99.90;;;;;;5051258;28;20498;-70
2021/10/06 14:05:54;;;;;;;1.20;1.17;;;15.80;99.90;;;;;;5050345;28;20510;-70
2021/10/06 14:08:21;;;;;;;1.77;0.87;;;15.80;99.90;;;;;;5049399;28;20565;-70
2021/10/06 14:10:47;;;;;;;1.50;1.40;;;15.80;99.90;;;;;;5051069;28;20885;-70
2021/10/06 14:13:14;;;;;;;1.10;1.10;;;15.90;99.90;;;;;;5053216;28;20514;-70
2021/10/06 14:15:41;;;;;;;3.30;3.10;;;15.90;99.90;;;;;;5054792;28;20460;-70
2021/10/06 14:18:08;;;;;;;2.93;1.33;;;15.80;99.90;;;;;;5053951;28;20484;-71
2021/10/06 14:20:36;;;;;;;4.40;1.57;;;15.70;99.90;;;;;;5054004;28;20484;-69
2021/10/06 14:23:03;;;;;;;1.30;1.00;;;15.60;99.90;;;;;;5054813;28;20468;-70
2021/10/06 14:25:30;;;;;;;1.40;1.30;;;15.40;99.90;;;;;;5054599;28;20549;-70
2021/10/06 14:27:57;;;;;;;1.10;1.10;;;15.30;99.90;;;;;;5054650;28;20487;-70
2021/10/06 14:30:23;;;;;;;3.07;1.47;;;15.30;99.90;;;;;;5054533;28;20519;-70
2021/10/06 14:32:50;;;;;;;1.53;1.43;;;15.10;99.90;;;;;;5054506;28;21009;-70
2021/10/06 14:35:18;;;;;;;1.27;1.27;;;15.00;99.90;;;;;;5053518;28;20526;-70
2021/10/06 14:37:48;;;;;;;4.77;1.57;;;14.90;99.90;;;;;;5054368;28;20862;-70
2021/10/06 14:40:16;;;;;;;1.23;1.23;;;14.80;99.90;;;;;;5054739;28;20533;-70
2021/10/06 14:42:43;;;;;;;1.30;1.30;;;14.90;99.90;;;;;;5054286;28;20464;-69
2021/10/06 14:45:12;;;;;;;0.90;0.90;;;14.90;99.90;;;;;;5054123;28;20464;-69
2021/10/06 14:47:38;;;;;;;1.30;1.00;;;15.00;99.90;;;;;;5054143;28;20549;-69
2021/10/06 14:50:07;;;;;;;1.07;1.00;;;15.00;99.90;;;;;;5053272;28;20621;-70
2021/10/06 14:52:34;;;;;;;1.13;1.13;;;15.00;99.90;;;;;;5053961;28;20521;-69
2021/10/06 14:55:02;;;;;;;1.80;1.80;;;15.00;99.90;;;;;;5054185;28;20460;-69
2021/10/06 14:57:29;;;;;;;0.93;0.93;;;14.90;99.90;;;;;;5054530;28;20779;-70
2021/10/06 14:59:56;;;;;;;1.20;1.20;;;14.80;99.90;;;;;;5053795;28;20880;-72
2021/10/06 15:02:23;;;;;;;1.10;1.10;;;14.90;99.90;;;;;;5053903;28;20495;-70
2021/10/06 15:04:50;;;;;;;1.50;1.40;;;14.90;99.90;;;;;;5052882;28;20968;-71
2021/10/06 15:07:16;;;;;;;1.00;1.00;;;15.00;99.90;;;;;;5054435;28;20587;-71
2021/10/06 15:09:44;;;;;;;0.80;0.80;;;15.00;99.90;;;;;;5053809;28;20502;-70
2021/10/06 15:12:13;;;;;;;1.83;1.20;;;15.00;99.90;;;;;;5053621;28;20832;-70
2021/10/06 15:14:39;;;;;;;1.23;1.23;;;15.00;99.90;;;;;;5053910;28;20471;-70
2021/10/06 15:17:06;;;;;;;1.20;1.20;;;15.00;99.90;;;;;;5054001;28;20537;-70
2021/10/06 15:19:33;;;;;;;0.97;0.97;;;14.90;99.90;;;;;;5051735;28;20537;-71
2021/10/06 15:22:00;;;;;;;2.80;1.20;;;14.80;99.90;;;;;;5053972;28;20949;-72
2021/10/06 15:24:26;;;;;;;1.80;1.37;;;14.80;99.90;;;;;;5053210;28;20981;-72
2021/10/06 15:26:53;;;;;;;1.53;1.13;;;14.70;99.90;;;;;;5053462;28;20537;-71
2021/10/06 15:29:21;;;;;;;1.10;1.00;;;14.70;99.90;;;;;;5053751;28;20785;-71
2021/10/06 15:31:48;;;;;;;1.60;1.60;;;14.60;99.90;;;;;;5053641;28;20480;-71
2021/10/06 15:34:14;;;;;;;1.00;1.00;;;14.50;99.90;;;;;;5051259;28;20488;-71
2021/10/06 15:36:41;;;;;;;1.47;1.37;;;14.50;99.90;;;;;;5053726;28;20460;-72
2021/10/06 15:39:08;;;;;;;0.93;0.93;;;14.40;99.90;;;;;;5053503;28;20523;-71
2021/10/06 15:41:35;;;;;;;1.13;1.13;;;14.30;99.90;;;;;;5053510;28;20894;-71
2021/10/06 15:44:01;;;;;;;1.17;1.17;;;14.30;99.90;;;;;;5052849;28;20962;-71
2021/10/06 15:46:30;;;;;;;1.33;1.03;;;14.20;99.90;;;;;;5053235;28;20468;-70
2021/10/06 15:48:56;;;;;;;1.67;1.57;;;14.10;99.90;;;;;;5053106;28;20484;-71
2021/10/06 15:51:23;;;;;;;1.40;1.37;;;14.10;99.90;;;;;;5052915;28;20488;-70
2021/10/06 15:53:49;;;;;;;1.67;1.57;;;14.00;99.90;;;;;;5052960;28;20669;-70
2021/10/06 15:56:16;;;;;;;5.73;1.60;;;14.00;99.90;;;;;;5053083;28;20517;-70
2021/10/06 15:58:43;;;;;;;1.50;1.40;;;13.90;99.90;;;;;;5053108;28;20506;-73
2021/10/06 16:01:10;;;;;;;1.03;1.03;;;13.90;99.90;;;;;;5052401;28;20483;-72
2021/10/06 16:03:38;;;;;;;1.20;1.20;;;13.80;99.90;;;;;;5052338;28;20538;-71
2021/10/06 16:06:05;;;;;;;1.90;1.40;;;13.80;99.90;;;;;;5051588;28;20460;-71
2021/10/06 16:08:32;;;;;;;1.27;1.20;;;13.70;99.90;;;;;;5052763;28;20538;-71
2021/10/06 16:10:59;;;;;;;6.73;1.60;;;13.70;99.90;;;;;;5052421;28;20535;-71
2021/10/06 16:13:26;;;;;;;1.13;1.13;;;13.70;99.90;;;;;;5052259;28;20479;-71
2021/10/06 16:15:53;;;;;;;1.50;1.50;;;13.60;99.90;;;;;;5052248;28;20952;-71
2021/10/06 16:18:20;;;;;;;1.60;1.53;;;13.60;99.90;;;;;;5052837;28;20511;-71
2021/10/06 16:20:48;;;;;;;1.63;1.57;;;13.60;99.90;;;;;;5051463;28;21055;-71
2021/10/06 16:23:14;;;;;;;1.73;1.73;;;13.60;99.90;;;;;;5052818;28;20521;-71
2021/10/06 16:25:41;;;;;;;2.67;2.20;;;13.60;99.90;;;;;;5052238;28;20960;-70
2021/10/06 16:28:08;;;;;;;1.70;1.70;;;13.60;99.90;;;;;;5052528;28;20545;-70
2021/10/06 16:30:35;;;;;;;1.27;1.27;;;13.50;99.90;;;;;;5054522;28;20552;-71
2021/10/06 16:33:01;;;;;;;1.50;1.40;;;13.50;99.90;;;;;;5054124;28;20456;-71
2021/10/06 16:35:28;;;;;;;2.70;1.50;;;13.50;99.90;;;;;;5051369;28;20523;-71
2021/10/06 16:37:56;;;;;;;1.73;1.63;;;13.40;99.90;;;;;;5052794;28;20476;-71
2021/10/06 16:40:23;;;;;;;1.87;1.70;;;13.40;99.90;;;;;;5052259;28;20567;-69
2021/10/06 16:42:50;;;;;;;2.03;1.93;;;13.30;99.90;;;;;;5051894;28;20522;-69
2021/10/06 16:45:16;;;;;;;3.27;2.00;;;13.30;99.90;;;;;;5052126;28;20925;-69
2021/10/06 16:47:43;;;;;;;2.10;2.00;;;13.30;99.90;;;;;;5052472;28;20591;-69
2021/10/06 16:50:11;;;;;;;2.10;2.10;;;13.30;99.90;;;;;;5051284;28;20521;-69
2021/10/06 16:52:37;;;;;;;1.70;1.70;;;13.20;99.90;;;;;;5052072;28;20567;-69
2021/10/06 16:55:06;;;;;;;1.87;1.77;;;13.20;99.90;;;;;;5052056;28;20464;-69